LEPALELL

Guest
Details From LEPA - Palma De Mallorca
To LELL - Sabadell
Flight Number -
Tags generated
Created
Modified
Stats Distance 122 nm / 225 km
Max Altitude 14,400 ft / 4,389 m
Waypoints 4
Social Downloads 0
Likes 0
Share VATSIM

Download

Looking for another format? Having issues loading an existing format? Contact us
Advertisement - Login to hide

Notes

Basic altitude profile: - Ascent Rate: 2500ft/min - Ascent Speed: 250kts - Cruise Altitude: 35000ft - Cruise Speed: 420kts - Descent Rate: 1500ft/min - Descent Speed: 250kts Options: - Use NATs: yes - Use PACOTS: yes - Use low airways: yes - Use high airways: yes

Route

LEPA LISAS B31 TOLSO LELL

ID Type Via Altitude Latitude Longitude Leg Dist Tot Dist Heading (true) Name
O LEPA APT - 0 ft / 0 m 39.55254˚ 2.73496˚ - 0 nm - Palma De Mallorca
LISAS FIX - 14,400 ft / 4,389 m 40.20223˚ 2.49627˚ 40 nm 40 nm 344° / 344° -
TOLSO FIX B31 (AWY-LO) 12,400 ft / 3,780 m 40.50000˚ 2.39289˚ 18 nm 59 nm 345° / 345° -
O LELL APT - 0 ft / 0 m 41.52098˚ 2.10491˚ 62 nm 121 nm 348° / 348° Sabadell

Altitude Profile

Advertisement - Login to hide

LEPA

Details ICAO LEPA (PMI)
Name Palma De Mallorca
Region Spain
Timezone Europe/Madrid (UTC+1.0)
Stats Elevation 24 ft / 7 m (AMSL)
Location 39.552536° 2.734958°
Runways 3
Magnetic Variation 0.987° E

METAR

LEPA 170430Z 02003KT 350V050 9999 FEW020 07/05 Q1024 NOSIG

Decode

TAF

TAF LEPA 162300Z 1700/1724 VRB05KT 9999 FEW020 TX14/1712Z TN03/1706Z TEMPO 1702/1707 07007KT TEMPO 1709/1716 31007KT TEMPO 1700/1707 SCT020 FEW025TCU

Decode

Departure Runways

ID Width Length Bearing (true) Bearing (mag) Surface Threshold Offset Overrun Length
06C 148 ft / 45 m 8,181 ft / 2,494 m 58.47° 57.48° Asphalt 0 ft / 0 m 0 ft / 0 m
06L 148 ft / 45 m 10,716 ft / 3,266 m 58.46° 57.47° Asphalt 0 ft / 0 m 0 ft / 0 m
06R 148 ft / 45 m 9,832 ft / 2,997 m 58.48° 57.49° Asphalt 1,345 ft / 410 m 0 ft / 0 m
24C 148 ft / 45 m 8,181 ft / 2,494 m 238.49° 237.50° Asphalt 0 ft / 0 m 0 ft / 0 m
24L 148 ft / 45 m 9,832 ft / 2,997 m 238.50° 237.51° Asphalt 0 ft / 0 m 197 ft / 60 m
24R 148 ft / 45 m 10,716 ft / 3,266 m 238.48° 237.49° Asphalt 230 ft / 70 m 0 ft / 0 m

LELL

Details ICAO LELL (QSA)
Name Sabadell
Region Spain
Timezone Europe/Madrid (UTC+1.0)
Stats Elevation 465 ft / 142 m (AMSL)
Location 41.520977° 2.104912°
Runways 1
Magnetic Variation 0.821° E

METAR

LELL 170430Z AUTO VRB02KT CAVOK 01/M04 Q1023

Decode

TAF

TAF LELL 170200Z 1703/1803 27007KT 9999 FEW030 TX13/1713Z TN01/1706Z

Decode

Destination Runways

ID Width Length Bearing (true) Bearing (mag) Surface Threshold Offset Overrun Length
13 98 ft / 30 m 2,956 ft / 901 m 127.50° 126.68° Asphalt 0 ft / 0 m 0 ft / 0 m
31 98 ft / 30 m 2,956 ft / 901 m 307.50° 306.68° Asphalt 0 ft / 0 m 0 ft / 0 m

Popular Alternatives